Sns 251 — FN6543 — position and weather

sailwx.info

Track history (hours):
 
Tides and Currents Weather Stations Pressure Air Temp Water Temp Dewpoint Dewpoint Depression Visibility Wind Speed Wind Dir Waves Ship Positions

Sns 251

Last reported at 2014-Aug-17 00:34 UTC. Time now 2014-Aug-22 00:04 UTC.
Position N 43°07' E 006°23'.

Length 10 m.

Type: Pilot. MMSI: 227002730.

Date/timePositionNaut miles runAvg speedWind from/ knotsBaromVisibWave heightAir tempDewpointWater temp
2014-Aug-17 00:34N 43°07' E 006°23'0 0.0
2014-Aug-16 00:23N 43°07' E 006°23'5 5.9
2014-Aug-15 23:33N 43°03' E 006°24'5 0.5
2014-Aug-15 14:33N 43°07' E 006°26'3 2.4
2014-Aug-15 13:30N 43°06' E 006°22'1 0.0
2014-Aug-13 22:13N 43°07' E 006°23'710.3
2014-Aug-13 21:34N 43°01' E 006°26'7 0.3
2014-Aug-12 21:15N 43°07' E 006°23'6 7.4
2014-Aug-12 20:28N 43°07' E 006°15'1 1.4
2014-Aug-12 19:33N 43°06' E 006°16'2 1.5
2014-Aug-12 18:32N 43°06' E 006°19'0 0.1
2014-Aug-12 17:33N 43°06' E 006°19'3 2.9
2014-Aug-12 16:34N 43°05' E 006°22'2 0.9
2014-Aug-12 14:18N 43°07' E 006°23'4 5.7
2014-Aug-12 13:33N 43°03' E 006°25'3 1.6
2014-Aug-12 11:33N 43°06' E 006°23'3 3.1
2014-Aug-12 10:33N 43°06' E 006°18'3 0.2
2014-Aug-11 20:07N 43°07' E 006°23'712.2
2014-Aug-11 19:33N 43°01' E 006°25'  
Track history (hours):
 
Tides and Currents Weather Stations Pressure Air Temp Water Temp Dewpoint Dewpoint Depression Visibility Wind Speed Wind Dir Waves Ship Positions

Sns 251

Last reported at 2014-Aug-17 00:34 UTC. Time now 2014-Aug-22 00:04 UTC.
Position N 43°07' E 006°23'.

Length 10 m.

Type: Pilot. MMSI: 227002730.

Date/timePositionNaut miles runAvg speedWind from/ knotsBaromVisibWave heightAir tempDewpointWater temp
2014-Aug-17 00:34N 43°07' E 006°23'0 0.0
2014-Aug-16 00:23N 43°07' E 006°23'5 5.9
2014-Aug-15 23:33N 43°03' E 006°24'5 0.5
2014-Aug-15 14:33N 43°07' E 006°26'3 2.4
2014-Aug-15 13:30N 43°06' E 006°22'1 0.0
2014-Aug-13 22:13N 43°07' E 006°23'710.3
2014-Aug-13 21:34N 43°01' E 006°26'7 0.3
2014-Aug-12 21:15N 43°07' E 006°23'6 7.4
2014-Aug-12 20:28N 43°07' E 006°15'1 1.4
2014-Aug-12 19:33N 43°06' E 006°16'2 1.5
2014-Aug-12 18:32N 43°06' E 006°19'0 0.1
2014-Aug-12 17:33N 43°06' E 006°19'3 2.9
2014-Aug-12 16:34N 43°05' E 006°22'2 0.9
2014-Aug-12 14:18N 43°07' E 006°23'4 5.7
2014-Aug-12 13:33N 43°03' E 006°25'3 1.6
2014-Aug-12 11:33N 43°06' E 006°23'3 3.1
2014-Aug-12 10:33N 43°06' E 006°18'3 0.2
2014-Aug-11 20:07N 43°07' E 006°23'712.2
2014-Aug-11 19:33N 43°01' E 006°25'  

Dump ship's entire track history